Time;durP1;ratioP1;P1;durP2;ratioP2;P2;SDS_P1;SDS_P2;PMS_P1;PMS_P2;Temp;Humidity;BMP_temperature;BMP_pressure;BME280_temperature;BME280_humidity;BME280_pressure;Samples;Min_cycle;Max_cycle;Signal;HPM_P1;HPM_P2
2024/01/23 00:00:26;;;;;;;1.30;1.30;;;;;;;-3.77;100.00;101623.38;5010796;28;20744;-70
2024/01/23 00:02:53;;;;;;;1.00;1.00;;;;;;;-4.22;100.00;101592.00;4979884;28;20285;-71
2024/01/23 00:05:20;;;;;;;0.90;0.90;;;;;;;-4.31;100.00;101577.53;5031063;28;20200;-71
2024/01/23 00:07:47;;;;;;;1.13;1.13;;;;;;;-4.52;100.00;101529.16;5032602;28;20212;-72
2024/01/23 00:10:14;;;;;;;1.13;1.13;;;;;;;-3.78;100.00;101623.25;5032619;28;20208;-71
2024/01/23 00:12:40;;;;;;;1.10;1.10;;;;;;;-3.87;100.00;101613.13;5032192;28;20199;-71
2024/01/23 00:15:08;;;;;;;0.97;0.97;;;;;;;-3.83;100.00;101621.91;5032163;28;20204;-71
2024/01/23 00:17:36;;;;;;;1.17;1.17;;;;;;;-4.09;100.00;101625.34;5032418;28;20372;-71
2024/01/23 00:20:04;;;;;;;1.47;1.47;;;;;;;-4.01;100.00;101609.28;4980760;28;20204;-71
2024/01/23 00:22:31;;;;;;;0.80;0.80;;;;;;;-3.86;100.00;101608.94;5032017;28;20211;-71
2024/01/23 00:24:58;;;;;;;1.23;1.23;;;;;;;-4.03;100.00;101608.22;5031574;28;20251;-71
2024/01/23 00:27:25;;;;;;;1.40;1.40;;;;;;;-4.02;100.00;101611.63;5031177;28;20196;-71
2024/01/23 00:29:51;;;;;;;1.40;1.40;;;;;;;-3.86;100.00;101612.38;5031396;28;20203;-71
2024/01/23 00:32:18;;;;;;;1.00;1.00;;;;;;;-3.80;100.00;101602.84;5031931;28;20244;-70
2024/01/23 00:34:46;;;;;;;2.70;2.60;;;;;;;-3.65;100.00;101594.16;5031929;28;20200;-71
2024/01/23 00:37:13;;;;;;;1.10;1.10;;;;;;;-3.81;100.00;101602.66;5031890;28;20208;-71
2024/01/23 00:39:40;;;;;;;1.10;1.10;;;;;;;-3.73;100.00;101599.22;5031854;28;20207;-71
2024/01/23 00:42:08;;;;;;;1.40;1.40;;;;;;;-3.60;100.00;101594.56;5031657;28;20212;-72
2024/01/23 00:44:34;;;;;;;1.10;1.10;;;;;;;-3.61;100.00;101596.25;5031612;28;20684;-72
2024/01/23 00:47:01;;;;;;;1.77;1.77;;;;;;;-3.92;100.00;101591.50;5031652;28;20645;-71
2024/01/23 00:49:28;;;;;;;1.10;1.10;;;;;;;-4.02;100.00;101596.44;5031451;28;20234;-71
2024/01/23 00:51:56;;;;;;;1.07;1.07;;;;;;;-3.86;100.00;101598.81;5031870;28;20211;-71
2024/01/23 00:54:23;;;;;;;1.07;1.07;;;;;;;-4.63;100.00;101494.34;5031920;28;20223;-71
2024/01/23 00:56:49;;;;;;;1.40;1.40;;;;;;;-4.52;100.00;101481.09;5031710;28;20200;-71
2024/01/23 00:59:16;;;;;;;1.23;1.23;;;;;;;-3.81;100.00;101590.91;5031738;28;20203;-72
2024/01/23 01:01:43;;;;;;;2.70;2.60;;;;;;;-3.82;100.00;101591.66;5031483;28;20524;-71
2024/01/23 01:04:10;;;;;;;1.03;1.03;;;;;;;-3.81;100.00;101595.06;5031613;28;20581;-71
2024/01/23 01:06:36;;;;;;;1.00;1.00;;;;;;;-3.82;100.00;101586.59;5031565;28;20599;-71
2024/01/23 01:09:05;;;;;;;1.10;1.10;;;;;;;-3.78;100.00;101586.13;5031285;28;20609;-71
2024/01/23 01:11:32;;;;;;;1.30;1.30;;;;;;;-4.17;100.00;101578.13;5012415;28;20287;-71
2024/01/23 01:13:58;;;;;;;2.33;2.23;;;;;;;-4.12;100.00;101582.00;5031566;28;20215;-71
2024/01/23 01:16:25;;;;;;;1.00;1.00;;;;;;;-4.03;100.00;101579.44;5030823;28;20215;-71
2024/01/23 01:18:52;;;;;;;1.30;1.30;;;;;;;-4.07;100.00;101574.88;5031521;28;20219;-70
2024/01/23 01:21:19;;;;;;;1.10;1.10;;;;;;;-4.39;100.00;101540.50;5030925;28;20226;-71
2024/01/23 01:23:46;;;;;;;0.90;0.90;;;;;;;-4.21;100.00;101565.91;5028803;28;20238;-70
2024/01/23 01:26:14;;;;;;;1.60;1.60;;;;;;;-4.08;100.00;101556.25;5030916;28;20208;-71
2024/01/23 01:28:41;;;;;;;1.30;1.30;;;;;;;-4.05;100.00;101563.22;5031341;28;20219;-71
2024/01/23 01:31:07;;;;;;;1.00;1.00;;;;;;;-4.06;100.00;101553.84;5031009;28;20251;-71
2024/01/23 01:33:34;;;;;;;0.90;0.90;;;;;;;-4.04;100.00;101514.38;5031001;28;20247;-71
2024/01/23 01:36:01;;;;;;;1.30;1.30;;;;;;;-4.00;100.00;101519.00;5031062;28;20265;-71
2024/01/23 01:38:28;;;;;;;1.20;1.20;;;;;;;-3.83;100.00;101529.06;5030709;28;20199;-71
2024/01/23 01:40:57;;;;;;;1.60;1.57;;;;;;;-3.84;100.00;101539.94;5031121;28;20218;-71
2024/01/23 01:43:27;;;;;;;0.87;0.87;;;;;;;-4.08;100.00;101541.06;5030664;28;20259;-71
2024/01/23 01:46:10;;;;;;;1.50;1.50;;;;;;;-4.19;100.00;101510.38;5028661;28;20864;-71
2024/01/23 01:48:38;;;;;;;1.10;1.10;;;;;;;-4.07;100.00;101514.09;5030427;28;20243;-71
2024/01/23 01:51:05;;;;;;;0.90;0.90;;;;;;;-3.94;100.00;101531.31;5030487;28;20208;-71
2024/01/23 01:53:33;;;;;;;1.40;1.40;;;;;;;-3.87;100.00;101531.16;5030609;28;20199;-71
2024/01/23 01:56:00;;;;;;;1.40;1.40;;;;;;;-4.02;100.00;101523.00;5031008;28;20200;-71
2024/01/23 01:58:29;;;;;;;2.43;2.10;;;;;;;-3.84;100.00;101524.75;5030581;28;20204;-71
2024/01/23 02:00:57;;;;;;;1.27;1.27;;;;;;;-4.02;100.00;101497.66;5030475;28;20266;-71
2024/01/23 02:03:24;;;;;;;26.60;4.90;;;;;;;-3.96;100.00;101528.66;5030023;28;20200;-72
2024/01/23 02:05:51;;;;;;;1.23;1.23;;;;;;;-4.03;100.00;101528.81;5030766;28;20199;-71
2024/01/23 02:08:18;;;;;;;1.20;1.20;;;;;;;-3.98;100.00;101530.16;5030357;28;20286;-71
2024/01/23 02:10:45;;;;;;;1.20;1.20;;;;;;;-4.25;100.00;101523.34;5030362;28;20204;-71
2024/01/23 02:13:12;;;;;;;1.10;1.10;;;;;;;-4.24;100.00;101511.56;5030535;28;20204;-70
2024/01/23 02:15:40;;;;;;;1.30;1.30;;;;;;;-4.11;100.00;101519.59;5030354;28;20212;-71
2024/01/23 02:18:06;;;;;;;1.17;1.17;;;;;;;-4.16;100.00;101516.63;5030396;28;20200;-71
2024/01/23 02:20:33;;;;;;;1.00;1.00;;;;;;;-4.19;100.00;101512.91;5030102;28;20215;-72
2024/01/23 02:23:00;;;;;;;1.20;1.20;;;;;;;-4.11;100.00;101512.91;5030186;28;20212;-71
2024/01/23 02:25:28;;;;;;;1.40;1.40;;;;;;;-4.03;100.00;101521.19;5029906;28;20258;-72
2024/01/23 02:27:55;;;;;;;2.17;2.13;;;;;;;-3.99;100.00;101499.63;5030064;28;20274;-71
2024/01/23 02:30:22;;;;;;;1.00;1.00;;;;;;;-4.01;100.00;101514.66;5033466;28;20200;-72
2024/01/23 02:32:49;;;;;;;4.37;3.97;;;;;;;-3.90;100.00;101513.16;5034067;28;20662;-72
2024/01/23 02:35:16;;;;;;;1.27;1.27;;;;;;;-3.99;100.00;101513.16;5033910;28;20656;-72
2024/01/23 02:37:42;;;;;;;1.60;1.60;;;;;;;-4.03;100.00;101511.06;5034422;28;20684;-71
2024/01/23 02:40:10;;;;;;;0.90;0.90;;;;;;;-4.12;100.00;101507.69;5033904;28;20211;-71
2024/01/23 02:42:38;;;;;;;1.00;1.00;;;;;;;-4.07;100.00;101502.28;5034369;28;20203;-71
2024/01/23 02:45:05;;;;;;;2.60;2.50;;;;;;;-4.29;100.00;101472.28;5032770;28;20702;-71
2024/01/23 02:47:32;;;;;;;1.00;1.00;;;;;;;-4.31;100.00;101507.56;5033886;28;20208;-71
2024/01/23 02:49:59;;;;;;;2.47;2.03;;;;;;;-4.56;100.00;101437.63;4982797;28;20215;-71
2024/01/23 02:52:27;;;;;;;1.30;1.30;;;;;;;-4.45;100.00;101476.59;5033989;28;20188;-71
2024/01/23 02:54:54;;;;;;;1.20;1.20;;;;;;;-4.95;100.00;101391.69;5033545;28;20208;-71
2024/01/23 02:57:21;;;;;;;2.00;1.90;;;;;;;-4.31;100.00;101478.81;5033483;28;20211;-71
2024/01/23 02:59:49;;;;;;;1.20;1.20;;;;;;;-4.19;100.00;101483.41;5033385;28;20211;-72
2024/01/23 03:02:16;;;;;;;1.30;1.30;;;;;;;-4.14;100.00;101474.59;5033406;28;20215;-71
2024/01/23 03:04:42;;;;;;;1.63;1.63;;;;;;;-4.12;100.00;101470.59;5033619;28;20696;-71
2024/01/23 03:07:09;;;;;;;1.10;1.10;;;;;;;-4.26;100.00;101459.91;5032523;28;20652;-71
2024/01/23 03:09:36;;;;;;;1.10;1.10;;;;;;;-4.32;100.00;101459.34;5033960;28;20255;-71
2024/01/23 03:12:04;;;;;;;1.20;1.20;;;;;;;-4.60;100.00;101387.47;5033560;28;20212;-71
2024/01/23 03:14:31;;;;;;;1.43;1.43;;;;;;;-4.60;100.00;101466.78;5014716;28;20219;-71
2024/01/23 03:17:03;;;;;;;1.40;1.40;;;;;;;-4.37;100.00;101455.47;5029537;28;20196;-71
2024/01/23 03:19:30;;;;;;;1.33;1.33;;;;;;;-4.50;100.00;101415.44;5033258;28;20207;-71
2024/01/23 03:21:57;;;;;;;1.40;1.40;;;;;;;-4.19;100.00;101439.47;5033570;28;20208;-71
2024/01/23 03:24:23;;;;;;;1.20;1.20;;;;;;;-4.21;100.00;101433.41;5033707;28;20281;-71
2024/01/23 03:26:50;;;;;;;1.10;1.10;;;;;;;-4.37;100.00;101384.59;5033337;28;20211;-71
2024/01/23 03:29:17;;;;;;;1.23;1.23;;;;;;;-4.15;100.00;101423.84;5033321;28;20207;-71
2024/01/23 03:31:44;;;;;;;1.67;1.67;;;;;;;-4.07;100.00;101422.94;5033225;28;20200;-71
2024/01/23 03:34:12;;;;;;;1.30;1.30;;;;;;;-4.33;100.00;101422.09;5031166;28;20208;-70
2024/01/23 03:36:39;;;;;;;1.40;1.40;;;;;;;-4.75;100.00;101424.88;5033455;28;20206;-71
2024/01/23 03:39:05;;;;;;;1.57;1.57;;;;;;;-4.60;100.00;101416.19;5032854;28;20215;-70
2024/01/23 03:41:32;;;;;;;1.50;1.50;;;;;;;-4.74;100.00;101370.97;5032746;28;20199;-70
2024/01/23 03:43:59;;;;;;;1.20;1.20;;;;;;;-4.45;100.00;101395.63;5032990;28;20196;-71
2024/01/23 03:46:26;;;;;;;1.40;1.40;;;;;;;-4.28;100.00;101398.13;5032845;28;20204;-71
2024/01/23 03:48:52;;;;;;;1.27;1.27;;;;;;;-4.26;100.00;101389.91;5031864;28;20295;-71
2024/01/23 03:51:21;;;;;;;1.20;1.20;;;;;;;-4.34;100.00;101360.47;5028968;28;20212;-71
2024/01/23 03:53:47;;;;;;;1.20;1.20;;;;;;;-4.36;100.00;101361.06;5032203;28;20227;-72
2024/01/23 03:56:14;;;;;;;1.23;1.23;;;;;;;-4.33;100.00;101384.13;4998110;28;20227;-70
2024/01/23 03:58:42;;;;;;;1.00;1.00;;;;;;;-4.94;100.00;101354.66;5032506;28;20204;-71
2024/01/23 04:01:09;;;;;;;2.40;2.40;;;;;;;-4.55;100.00;101366.94;5032751;28;20214;-71
2024/01/23 04:03:35;;;;;;;1.20;1.20;;;;;;;-4.51;100.00;101395.94;5032413;28;20208;-71
2024/01/23 04:06:02;;;;;;;1.27;1.27;;;;;;;-4.44;100.00;101383.13;5032111;28;20688;-71
2024/01/23 04:08:30;;;;;;;1.48;1.48;;;;;;;-4.14;100.00;101380.91;5031434;28;20447;-71
2024/01/23 04:10:57;;;;;;;1.00;1.00;;;;;;;-4.98;100.00;101221.09;5032146;28;20466;-71
2024/01/23 04:13:24;;;;;;;1.77;1.70;;;;;;;-3.93;100.00;101379.50;5031460;28;20516;-71
2024/01/23 04:15:51;;;;;;;1.17;1.17;;;;;;;-4.14;100.00;101375.00;5032417;28;20196;-72
2024/01/23 04:18:18;;;;;;;1.40;1.40;;;;;;;-4.03;100.00;101370.16;5031498;28;20196;-72
2024/01/23 04:20:45;;;;;;;1.00;1.00;;;;;;;-4.39;100.00;101365.84;5032033;28;20200;-72
2024/01/23 04:23:11;;;;;;;1.40;1.40;;;;;;;-4.27;100.00;101366.97;5031794;28;20200;-71
2024/01/23 04:25:39;;;;;;;1.17;1.17;;;;;;;-4.15;100.00;101365.59;5032088;28;20239;-71
2024/01/23 04:28:06;;;;;;;0.90;0.90;;;;;;;-4.06;100.00;101364.81;5031959;28;20192;-72
2024/01/23 04:30:33;;;;;;;3.20;3.00;;;;;;;-4.03;100.00;101354.06;5029817;28;20205;-72
2024/01/23 04:33:00;;;;;;;0.90;0.90;;;;;;;-3.96;100.00;101348.84;4980316;28;20200;-71
2024/01/23 04:35:27;;;;;;;0.90;0.90;;;;;;;-4.27;100.00;101361.91;5031260;28;20204;-73
2024/01/23 04:37:54;;;;;;;1.10;1.10;;;;;;;-4.63;100.00;101352.66;5031205;28;20200;-71
2024/01/23 04:40:22;;;;;;;1.20;1.20;;;;;;;-4.49;100.00;101332.84;5029359;28;20532;-71
2024/01/23 04:42:50;;;;;;;1.30;1.30;;;;;;;-4.27;100.00;101336.59;5031332;28;20664;-71
2024/01/23 04:45:17;;;;;;;1.10;1.10;;;;;;;-4.16;100.00;101348.63;5031217;28;20397;-71
2024/01/23 04:47:44;;;;;;;1.40;1.40;;;;;;;-4.26;100.00;101325.72;5012455;28;20203;-70
2024/01/23 04:50:11;;;;;;;1.50;1.50;;;;;;;-4.12;100.00;101344.00;5032948;28;20207;-71
2024/01/23 04:52:37;;;;;;;1.20;1.20;;;;;;;-4.13;100.00;101336.22;5033117;28;20211;-71
2024/01/23 04:55:05;;;;;;;1.20;1.20;;;;;;;-4.28;100.00;101330.63;5033392;28;20208;-71
2024/01/23 04:57:32;;;;;;;1.20;1.20;;;;;;;-4.91;100.00;101302.72;5033064;28;20231;-72
2024/01/23 05:00:00;;;;;;;1.30;1.30;;;;;;;-4.62;100.00;101326.63;5030799;28;20200;-72
2024/01/23 05:02:28;;;;;;;1.10;1.10;;;;;;;-4.91;100.00;101320.44;5030864;28;20196;-71
2024/01/23 05:04:55;;;;;;;1.00;1.00;;;;;;;-4.87;100.00;101301.38;5030799;28;20235;-72
2024/01/23 05:07:21;;;;;;;1.80;1.80;;;;;;;-5.13;100.00;101301.41;5030755;28;20291;-72
2024/01/23 05:09:48;;;;;;;1.17;1.17;;;;;;;-5.31;100.00;101294.59;5030633;28;20231;-71
2024/01/23 05:12:15;;;;;;;1.80;1.80;;;;;;;-5.25;100.00;101301.16;5030791;28;20196;-72
2024/01/23 05:14:42;;;;;;;1.40;1.40;;;;;;;-5.41;100.00;101291.94;5030561;28;20204;-72
2024/01/23 05:17:10;;;;;;;1.60;1.60;;;;;;;-5.11;100.00;101289.84;4995617;28;20219;-72
2024/01/23 05:19:37;;;;;;;1.27;1.27;;;;;;;-5.03;100.00;101292.34;5030455;28;20226;-72
2024/01/23 05:22:04;;;;;;;1.40;1.40;;;;;;;-4.92;100.00;101293.34;5030327;28;20211;-71
2024/01/23 05:24:30;;;;;;;1.20;1.20;;;;;;;-5.14;100.00;101302.19;5030527;28;20196;-72
2024/01/23 05:26:57;;;;;;;1.50;1.50;;;;;;;-6.03;100.00;101191.69;5030377;28;20302;-72
2024/01/23 05:29:24;;;;;;;1.50;1.50;;;;;;;-5.33;100.00;101296.09;5030188;28;20207;-71
2024/01/23 05:31:51;;;;;;;1.10;1.10;;;;;;;-5.28;100.00;101292.41;5029840;28;20196;-71
2024/01/23 05:34:19;;;;;;;1.40;1.40;;;;;;;-5.07;100.00;101296.97;5030040;28;20203;-72
2024/01/23 05:36:46;;;;;;;1.00;1.00;;;;;;;-5.33;100.00;101270.81;5029829;28;20204;-73
2024/01/23 05:39:13;;;;;;;1.53;1.53;;;;;;;-5.34;100.00;101294.31;5030055;28;20211;-73
2024/01/23 05:41:39;;;;;;;2.50;2.40;;;;;;;-5.17;100.00;101294.31;4995911;28;20203;-71
2024/01/23 05:44:06;;;;;;;1.40;1.40;;;;;;;-4.99;100.00;101288.47;5030307;28;20246;-72
2024/01/23 05:46:34;;;;;;;1.30;1.30;;;;;;;-4.77;100.00;101283.78;5029690;28;20220;-72
2024/01/23 05:49:01;;;;;;;2.87;2.67;;;;;;;-4.71;100.00;101282.72;4995177;28;20207;-71
2024/01/23 05:51:29;;;;;;;1.40;1.40;;;;;;;-4.91;100.00;101269.84;5030252;28;20200;-71
2024/01/23 05:53:55;;;;;;;1.13;1.13;;;;;;;-4.82;100.00;101285.91;5030295;28;20681;-71
2024/01/23 05:56:22;;;;;;;1.60;1.60;;;;;;;-4.62;100.00;101296.25;5029746;28;20656;-71
2024/01/23 05:58:49;;;;;;;1.10;1.10;;;;;;;-4.49;100.00;101297.41;5029175;28;20679;-71
2024/01/23 06:01:16;;;;;;;1.10;1.10;;;;;;;-4.85;100.00;101272.94;5029671;28;20195;-71
2024/01/23 06:03:42;;;;;;;1.20;1.20;;;;;;;-4.41;100.00;101302.41;5030065;28;20664;-71
2024/01/23 06:06:09;;;;;;;1.27;1.27;;;;;;;-4.26;100.00;101292.81;5029854;28;20631;-72
2024/01/23 06:08:37;;;;;;;1.40;1.40;;;;;;;-4.51;100.00;101300.69;5028119;28;20617;-71
2024/01/23 06:11:04;;;;;;;3.73;3.43;;;;;;;-4.59;100.00;101299.06;5027511;28;20236;-72
2024/01/23 06:13:31;;;;;;;1.17;1.17;;;;;;;-4.35;100.00;101312.25;4987680;28;20220;-74
2024/01/23 06:15:58;;;;;;;1.33;1.33;;;;;;;-4.20;100.00;101318.69;4979540;28;20212;-73
2024/01/23 06:18:25;;;;;;;1.70;1.70;;;;;;;-4.11;100.00;101322.09;5029210;28;20208;-73
2024/01/23 06:20:51;;;;;;;1.30;1.30;;;;;;;-4.13;100.00;101311.81;5029261;28;20228;-73
2024/01/23 06:23:18;;;;;;;1.07;1.07;;;;;;;-4.21;100.00;101306.81;5018384;28;20212;-73
2024/01/23 06:25:46;;;;;;;1.10;1.10;;;;;;;-4.08;100.00;101315.69;4988477;28;20228;-73
2024/01/23 06:28:13;;;;;;;1.10;1.10;;;;;;;-3.79;100.00;101274.38;5020200;28;20207;-71
2024/01/23 06:30:40;;;;;;;1.47;1.47;;;;;;;-3.50;100.00;101301.56;5029043;28;20310;-70
2024/01/23 06:33:06;;;;;;;1.40;1.40;;;;;;;-3.72;100.00;101302.94;5028978;28;20208;-70
2024/01/23 06:35:33;;;;;;;1.97;1.97;;;;;;;-3.72;100.00;101310.53;5028447;28;20700;-71
2024/01/23 06:38:00;;;;;;;7.17;6.63;;;;;;;-4.26;100.00;101247.25;5028623;28;20243;-71
2024/01/23 06:40:27;;;;;;;1.43;1.43;;;;;;;-4.05;100.00;101310.00;5029115;28;20211;-70
2024/01/23 06:42:55;;;;;;;1.60;1.60;;;;;;;-3.93;100.00;101316.19;5026041;28;20205;-71
2024/01/23 06:45:22;;;;;;;2.27;2.17;;;;;;;-3.95;100.00;101317.66;5022304;28;20228;-73
2024/01/23 06:47:49;;;;;;;1.70;1.70;;;;;;;-3.99;100.00;101315.59;5029246;28;20204;-70
2024/01/23 06:50:16;;;;;;;0.90;0.90;;;;;;;-4.07;100.00;101311.50;5029532;28;20597;-72
2024/01/23 06:52:42;;;;;;;1.20;1.20;;;;;;;-4.05;100.00;101326.06;5029303;28;20651;-71
2024/01/23 06:55:10;;;;;;;1.97;1.87;;;;;;;-4.45;100.00;101307.94;5029266;28;20196;-75
2024/01/23 06:57:37;;;;;;;1.20;1.20;;;;;;;-4.24;100.00;101316.63;5029557;28;20623;-76
2024/01/23 07:00:08;;;;;;;1.93;1.93;;;;;;;-4.06;100.00;101333.53;5029174;28;20668;-76
2024/01/23 07:02:34;;;;;;;2.67;2.57;;;;;;;-4.06;100.00;101346.19;5029563;28;20239;-75
2024/01/23 07:05:01;;;;;;;1.20;1.20;;;;;;;-4.32;100.00;101343.78;5029193;28;20899;-76
2024/01/23 07:07:28;;;;;;;1.17;1.17;;;;;;;-4.42;100.00;101313.28;5029506;28;20204;-75
2024/01/23 07:09:55;;;;;;;1.30;1.30;;;;;;;-4.40;100.00;101338.75;5029069;28;20232;-76
2024/01/23 07:12:21;;;;;;;1.10;1.10;;;;;;;-4.33;100.00;101341.09;5021601;28;20208;-74
2024/01/23 07:14:48;;;;;;;1.73;1.73;;;;;;;-4.21;100.00;101342.25;5024872;28;20197;-75
2024/01/23 07:17:17;;;;;;;2.37;2.27;;;;;;;-3.90;100.00;101333.31;5019435;28;20204;-74
2024/01/23 07:19:44;;;;;;;0.90;0.90;;;;;;;-3.65;100.00;101343.28;5033032;28;20565;-75
2024/01/23 07:22:11;;;;;;;1.93;1.93;;;;;;;-3.50;100.00;101326.91;5019032;28;20232;-76
2024/01/23 07:24:38;;;;;;;4.03;2.90;;;;;;;-3.39;100.00;101344.75;5033103;28;20200;-74
2024/01/23 07:27:04;;;;;;;1.30;1.30;;;;;;;-3.60;100.00;101321.75;5032945;28;20236;-76
2024/01/23 07:29:31;;;;;;;1.10;1.10;;;;;;;-3.32;100.00;101357.22;5033359;28;20204;-75
2024/01/23 07:31:58;;;;;;;5.83;5.43;;;;;;;-3.52;100.00;101374.03;5033440;28;20628;-75
2024/01/23 07:34:26;;;;;;;1.73;1.73;;;;;;;-3.64;100.00;101367.84;5033194;28;20211;-75
2024/01/23 07:36:53;;;;;;;2.47;2.37;;;;;;;-3.72;100.00;101385.66;5032994;28;20204;-75
2024/01/23 07:39:20;;;;;;;1.00;1.00;;;;;;;-3.48;100.00;101390.41;5033292;28;20652;-76
2024/01/23 07:41:47;;;;;;;2.27;2.17;;;;;;;-3.78;100.00;101383.44;5033062;28;20200;-76
2024/01/23 07:44:14;;;;;;;1.40;1.40;;;;;;;-3.85;100.00;101386.16;5032899;28;20200;-77
2024/01/23 07:46:41;;;;;;;1.10;1.10;;;;;;;-3.90;100.00;101391.56;5023611;28;20225;-75
2024/01/23 07:49:07;;;;;;;1.43;1.43;;;;;;;-3.99;100.00;101396.66;5014257;28;20205;-76
2024/01/23 07:51:47;;;;;;;1.77;1.77;;;;;;;-3.29;100.00;101390.44;5032440;28;20200;-71
2024/01/23 07:54:14;;;;;;;0.93;0.93;;;;;;;-3.58;100.00;101397.94;5018380;28;20594;-73
2024/01/23 07:56:40;;;;;;;1.30;1.30;;;;;;;-3.59;100.00;101407.19;5032791;28;20582;-74
2024/01/23 07:59:07;;;;;;;1.20;1.20;;;;;;;-4.23;100.00;101419.69;5032604;28;20262;-72
2024/01/23 08:01:34;;;;;;;1.10;1.10;;;;;;;-4.42;100.00;101390.88;5032284;28;20204;-72
2024/01/23 08:04:02;;;;;;;1.63;1.63;;;;;;;-4.00;100.00;101425.28;5032421;28;20212;-72
2024/01/23 08:06:29;;;;;;;1.10;1.10;;;;;;;-4.16;100.00;101422.03;5032259;28;20619;-72
2024/01/23 08:08:57;;;;;;;1.60;1.60;;;;;;;-4.49;100.00;101320.19;5032163;28;20232;-74
2024/01/23 08:11:24;;;;;;;1.27;1.27;;;;;;;-3.87;100.00;101415.53;5018285;28;20197;-73
2024/01/23 08:13:50;;;;;;;2.73;2.63;;;;;;;-3.81;100.00;101428.75;5032061;28;20201;-73
2024/01/23 08:16:17;;;;;;;1.03;1.03;;;;;;;-4.02;100.00;101381.16;5017945;28;20263;-73
2024/01/23 08:18:44;;;;;;;1.27;1.27;;;;;;;-4.16;100.00;101411.91;5032200;28;20201;-77
2024/01/23 08:21:10;;;;;;;1.10;1.10;;;;;;;-4.40;100.00;101419.75;5033267;28;20200;-76
2024/01/23 08:23:37;;;;;;;1.60;1.60;;;;;;;-4.37;100.00;101431.03;5032652;28;20203;-73
2024/01/23 08:26:06;;;;;;;1.10;1.10;;;;;;;-4.02;100.00;101431.81;5031123;28;20236;-73
2024/01/23 08:28:33;;;;;;;1.70;1.70;;;;;;;-4.39;100.00;101404.72;5031552;28;20698;-73
2024/01/23 08:31:03;;;;;;;11.43;2.60;;;;;;;-4.36;100.00;101412.59;5018091;28;20253;-73
2024/01/23 08:33:30;;;;;;;3.33;3.13;;;;;;;-4.15;100.00;101431.44;5031686;28;20651;-73
2024/01/23 08:35:57;;;;;;;1.83;1.77;;;;;;;-4.12;100.00;101429.19;5031682;28;20218;-73
2024/01/23 08:38:24;;;;;;;1.70;1.67;;;;;;;-4.05;100.00;101439.13;5031524;28;20234;-72
2024/01/23 08:40:51;;;;;;;4.47;2.60;;;;;;;-4.14;100.00;101433.22;5031390;28;20212;-73
2024/01/23 08:43:18;;;;;;;2.60;2.50;;;;;;;-3.97;100.00;101437.31;5031581;28;20228;-73
2024/01/23 08:45:45;;;;;;;2.03;2.03;;;;;;;-4.14;100.00;101431.56;4982794;28;20841;-73
2024/01/23 08:48:12;;;;;;;1.40;1.40;;;;;;;-4.06;100.00;101396.81;5031572;28;20692;-74
2024/01/23 08:50:39;;;;;;;3.83;3.50;;;;;;;-3.73;100.00;101427.84;4982767;28;20201;-71
2024/01/23 08:53:06;;;;;;;4.80;4.50;;;;;;;-3.84;100.00;101422.50;4963509;28;20204;-70
2024/01/23 08:55:32;;;;;;;2.43;2.33;;;;;;;-3.56;100.00;101437.88;5023593;28;20211;-73
2024/01/23 08:57:59;;;;;;;1.43;1.43;;;;;;;-3.35;100.00;101433.00;4996591;28;20624;-72
2024/01/23 09:00:27;;;;;;;1.47;1.47;;;;;;;-3.27;100.00;101437.09;4996495;28;20213;-70
2024/01/23 09:02:54;;;;;;;1.23;1.23;;;;;;;-3.38;100.00;101437.78;5017374;28;20286;-71
2024/01/23 09:05:21;;;;;;;1.77;1.77;;;;;;;-3.45;100.00;101437.97;5022326;28;20228;-71
2024/01/23 09:07:48;;;;;;;2.03;1.93;;;;;;;-3.64;100.00;101433.72;5026268;28;20647;-72
2024/01/23 09:10:15;;;;;;;1.70;1.70;;;;;;;-4.28;100.00;101416.72;5023949;28;20537;-71
2024/01/23 09:12:42;;;;;;;1.23;1.23;;;;;;;-4.30;100.00;101422.38;5024512;28;20207;-71
2024/01/23 09:15:10;;;;;;;1.50;1.50;;;;;;;-4.48;100.00;101416.47;5030967;28;20208;-70
2024/01/23 09:17:38;;;;;;;1.33;1.33;;;;;;;-4.28;100.00;101405.72;4972317;28;20299;-70
2024/01/23 09:20:06;;;;;;;1.03;1.03;;;;;;;-4.62;100.00;101402.50;5006904;28;20566;-70
2024/01/23 09:22:33;;;;;;;2.57;2.47;;;;;;;-4.60;100.00;101400.13;5030438;28;20211;-71
2024/01/23 09:25:03;;;;;;;1.10;1.10;;;;;;;-4.41;100.00;101383.41;5017780;28;20228;-70
2024/01/23 09:27:30;;;;;;;1.40;1.40;;;;;;;-4.49;100.00;101401.16;5030200;28;20282;-72
2024/01/23 09:29:57;;;;;;;2.37;1.87;;;;;;;-4.40;100.00;101371.66;4996208;28;20715;-70
2024/01/23 09:32:24;;;;;;;1.60;1.60;;;;;;;-4.37;100.00;101351.69;5030332;28;20204;-70
2024/01/23 09:34:52;;;;;;;3.20;3.10;;;;;;;-4.97;100.00;101233.88;5020650;28;20680;-71
2024/01/23 09:37:19;;;;;;;1.40;1.40;;;;;;;-3.70;100.00;101387.56;5024103;28;20204;-69
2024/01/23 09:39:46;;;;;;;2.33;2.23;;;;;;;-3.55;100.00;101366.16;5018880;28;20289;-69
2024/01/23 09:42:12;;;;;;;5.27;4.77;;;;;;;-2.79;100.00;101383.16;5016615;28;20205;-70
2024/01/23 09:44:40;;;;;;;1.10;1.10;;;;;;;-3.53;100.00;101315.59;5030489;28;20211;-70
2024/01/23 09:47:09;;;;;;;4.00;3.60;;;;;;;-3.84;100.00;101332.22;5030043;28;20231;-70
2024/01/23 09:49:37;;;;;;;1.30;1.30;;;;;;;-4.10;100.00;101339.03;5030074;28;20208;-70
2024/01/23 09:52:07;;;;;;;1.10;1.10;;;;;;;-5.29;100.00;101122.19;5030002;28;20200;-70
2024/01/23 09:54:38;;;;;;;1.00;1.00;;;;;;;-3.94;100.00;101379.34;5030185;28;20211;-69
2024/01/23 09:57:06;;;;;;;1.80;1.80;;;;;;;-4.17;100.00;101344.28;5030001;28;20696;-70
2024/01/23 09:59:33;;;;;;;1.30;1.30;;;;;;;-4.22;100.00;101370.84;5012424;28;20625;-71
2024/01/23 10:02:00;;;;;;;1.70;1.60;;;;;;;-4.34;100.00;101374.75;5030240;28;20629;-72
2024/01/23 10:04:29;;;;;;;1.30;1.30;;;;;;;-4.38;100.00;101362.53;5028374;28;20200;-72
2024/01/23 10:06:59;;;;;;;1.70;1.70;;;;;;;-4.26;100.00;101361.19;4983538;28;20253;-72
2024/01/23 10:09:28;;;;;;;5.10;1.93;;;;;;;-3.96;100.00;101341.25;5006424;28;20699;-72
2024/01/23 10:11:56;;;;;;;1.30;1.30;;;;;;;-3.77;100.00;101354.81;5010397;28;20208;-72
2024/01/23 10:14:24;;;;;;;1.20;1.20;;;;;;;-3.77;100.00;101359.88;5010171;28;20310;-72
2024/01/23 10:16:51;;;;;;;1.40;1.40;;;;;;;-4.04;100.00;101329.50;5008383;28;20217;-71
2024/01/23 10:19:18;;;;;;;3.13;2.57;;;;;;;-3.76;100.00;101345.59;5010058;28;20201;-72
2024/01/23 10:21:46;;;;;;;1.40;1.40;;;;;;;-3.28;100.00;101370.28;5009912;28;20204;-72
2024/01/23 10:24:13;;;;;;;2.10;2.07;;;;;;;-3.44;100.00;101377.28;5010031;28;20197;-72
2024/01/23 10:26:46;;;;;;;1.97;1.87;;;;;;;-3.66;100.00;101358.34;5008718;28;20232;-72
2024/01/23 10:29:13;;;;;;;1.60;1.60;;;;;;;-3.52;100.00;101335.13;5009936;28;20588;-71
2024/01/23 10:31:40;;;;;;;1.17;1.17;;;;;;;-3.22;100.00;101359.81;5010417;28;20212;-71
2024/01/23 10:34:11;;;;;;;1.60;1.60;;;;;;;-3.08;100.00;101360.28;5010068;28;20271;-71
2024/01/23 10:36:38;;;;;;;1.50;1.50;;;;;;;-3.30;100.00;101358.22;4991866;28;20291;-71
2024/01/23 10:39:06;;;;;;;1.20;1.20;;;;;;;-3.14;100.00;101354.66;5010217;28;20205;-72
2024/01/23 10:41:34;;;;;;;2.10;2.00;;;;;;;-3.40;100.00;101354.00;5010190;28;20236;-72
2024/01/23 10:44:03;;;;;;;1.03;1.03;;;;;;;-3.31;100.00;101337.06;4996053;28;20685;-72
2024/01/23 10:46:31;;;;;;;1.50;1.50;;;;;;;-3.24;100.00;101330.88;5010139;28;20235;-72
2024/01/23 10:48:58;;;;;;;1.40;1.40;;;;;;;-3.75;100.00;101305.19;5009942;28;20371;-72
2024/01/23 10:51:30;;;;;;;1.47;1.47;;;;;;;-3.91;100.00;101329.88;4995006;28;20681;-72
2024/01/23 10:54:07;;;;;;;2.03;1.80;;;;;;;-4.09;100.00;101328.19;5000883;28;20197;-71
2024/01/23 10:56:41;;;;;;;2.47;2.17;;;;;;;-3.74;100.00;101328.84;4994074;28;20205;-70
2024/01/23 10:59:16;;;;;;;1.30;1.30;;;;;;;-3.75;100.00;101302.66;5007624;28;20223;-72
2024/01/23 11:01:45;;;;;;;1.57;1.57;;;;;;;-3.46;100.00;101332.28;4994383;28;20279;-72
2024/01/23 11:04:12;;;;;;;1.23;1.23;;;;;;;-3.64;100.00;101332.38;5007572;28;20292;-73
2024/01/23 11:06:48;;;;;;;1.83;1.73;;;;;;;-3.35;100.00;101331.59;4999682;28;20232;-72
2024/01/23 11:09:21;;;;;;;1.10;1.10;;;;;;;-3.22;100.00;101320.13;5026309;28;20297;-72
2024/01/23 11:11:55;;;;;;;1.53;1.53;;;;;;;-2.73;100.00;101325.31;5019592;28;20196;-70
2024/01/23 11:14:27;;;;;;;1.20;1.20;;;;;;;-2.70;100.00;101322.16;4979497;28;20226;-73
2024/01/23 11:17:13;;;;;;;1.13;1.13;;;;;;;-2.31;100.00;101324.69;5019247;28;20618;-71